createdAt,value
2023-05-03T00:00:12.339Z,13.48
2023-05-03T00:01:33.853Z,14.85
2023-05-03T00:02:57.616Z,13.30
2023-05-03T00:04:19.117Z,14.02
2023-05-03T00:05:41.515Z,13.18
2023-05-03T00:07:04.088Z,13.13
2023-05-03T00:08:27.744Z,10.90
2023-05-03T00:09:51.878Z,9.80
2023-05-03T00:11:13.285Z,16.63
2023-05-03T00:12:38.830Z,13.57
2023-05-03T00:14:01.283Z,14.20
2023-05-03T00:15:26.741Z,15.35
2023-05-03T00:17:10.245Z,14.50
2023-05-03T00:18:32.552Z,13.50
2023-05-03T00:19:56.344Z,13.07
2023-05-03T00:21:20.161Z,9.40
2023-05-03T00:23:11.381Z,10.38
2023-05-03T00:24:41.449Z,15.82
2023-05-03T00:26:03.657Z,14.40
2023-05-03T00:27:28.542Z,8.50
2023-05-03T00:28:50.975Z,9.57
2023-05-03T00:30:15.695Z,12.52
2023-05-03T00:31:46.467Z,12.57
2023-05-03T00:33:32.887Z,9.90
2023-05-03T00:34:58.490Z,11.48
2023-05-03T00:36:20.615Z,12.75
2023-05-03T00:37:44.678Z,17.10
2023-05-03T00:39:07.416Z,11.75
2023-05-03T00:40:38.587Z,16.02
2023-05-03T00:42:00.443Z,11.23
2023-05-03T00:43:23.203Z,12.27
2023-05-03T00:44:48.873Z,15.63
2023-05-03T00:46:17.402Z,13.80
2023-05-03T00:47:39.828Z,9.30
2023-05-03T00:49:04.429Z,11.65
2023-05-03T00:50:34.735Z,11.40
2023-05-03T00:52:07.968Z,12.48
2023-05-03T00:53:32.492Z,8.73
2023-05-03T00:54:55.154Z,13.45
2023-05-03T00:56:21.465Z,14.27
2023-05-03T00:57:48.121Z,13.75
2023-05-03T00:59:16.204Z,14.70
2023-05-03T01:00:47.708Z,10.30
2023-05-03T01:02:28.702Z,8.85
2023-05-03T01:04:16.309Z,11.10
2023-05-03T01:06:01.322Z,13.10
2023-05-03T01:07:38.141Z,13.25
2023-05-03T01:09:07.018Z,12.02
2023-05-03T01:14:45.311Z,11.05
2023-05-03T01:16:12.775Z,15.80
2023-05-03T01:17:41.173Z,14.90
2023-05-03T01:19:27.120Z,12.48
2023-05-03T01:20:52.090Z,8.43
2023-05-03T01:22:23.802Z,11.15
2023-05-03T01:23:58.343Z,12.13
2023-05-03T01:25:21.630Z,11.73
2023-05-03T01:26:44.326Z,11.15
2023-05-03T01:28:05.886Z,13.32
2023-05-03T01:29:29.744Z,16.00
2023-05-03T01:30:56.782Z,9.68
2023-05-03T01:32:30.590Z,11.60
2023-05-03T01:34:04.179Z,15.13
2023-05-03T01:35:33.982Z,8.10
2023-05-03T01:37:03.481Z,9.95
2023-05-03T01:38:25.947Z,9.90
2023-05-03T01:39:55.490Z,11.20
2023-05-03T01:41:24.084Z,9.68
2023-05-03T01:42:47.739Z,13.95
2023-05-03T01:44:12.118Z,13.02
2023-05-03T01:45:34.339Z,15.40
2023-05-03T01:46:59.041Z,14.52
2023-05-03T01:48:21.870Z,15.10
2023-05-03T01:49:43.025Z,8.07
2023-05-03T01:51:06.079Z,15.30
2023-05-03T01:52:28.856Z,10.82
2023-05-03T01:53:50.074Z,14.00
2023-05-03T01:55:12.558Z,13.43
2023-05-03T01:56:53.044Z,13.90
2023-05-03T01:58:18.137Z,12.77
2023-05-03T01:59:40.714Z,8.63
2023-05-03T02:01:08.731Z,13.25
2023-05-03T02:02:34.396Z,8.82
2023-05-03T02:03:55.714Z,12.00
2023-05-03T02:05:18.028Z,10.38
2023-05-03T02:06:41.040Z,10.07
2023-05-03T02:08:02.231Z,9.75
2023-05-03T02:09:25.721Z,18.35
2023-05-03T02:10:47.927Z,11.95
2023-05-03T02:12:16.010Z,14.60
2023-05-03T02:13:39.018Z,12.48
2023-05-03T02:15:01.425Z,12.98
2023-05-03T02:16:22.739Z,12.00
2023-05-03T02:17:47.512Z,11.25
2023-05-03T02:19:11.262Z,14.40
2023-05-03T02:20:40.374Z,13.02
2023-05-03T02:22:01.956Z,14.07
2023-05-03T02:23:24.187Z,14.20
2023-05-03T02:24:47.138Z,12.68
2023-05-03T02:26:10.075Z,10.10
2023-05-03T02:27:32.636Z,9.95
2023-05-03T02:28:59.716Z,12.07
2023-05-03T02:30:22.501Z,16.90
2023-05-03T02:31:44.820Z,11.00
2023-05-03T02:33:06.011Z,12.57
2023-05-03T02:34:33.403Z,9.88
2023-05-03T02:35:55.743Z,10.25
2023-05-03T02:37:17.006Z,11.50
2023-05-03T02:38:40.306Z,10.15
2023-05-03T02:40:02.666Z,10.40
2023-05-03T02:41:25.448Z,9.88
2023-05-03T02:42:48.988Z,9.88
2023-05-03T02:44:18.089Z,12.05
2023-05-03T02:45:40.246Z,13.27
2023-05-03T02:47:04.985Z,14.25
2023-05-03T02:48:27.176Z,10.57
2023-05-03T02:49:49.717Z,11.48
2023-05-03T02:51:12.025Z,12.40
2023-05-03T02:52:33.030Z,12.68
2023-05-03T02:53:55.580Z,8.57
2023-05-03T02:55:17.575Z,11.32
2023-05-03T02:56:43.752Z,7.53
2023-05-03T02:58:13.525Z,12.77
2023-05-03T02:59:34.765Z,14.60
2023-05-03T03:02:26.474Z,9.88
2023-05-03T03:03:49.883Z,12.02
2023-05-03T03:05:12.480Z,10.70
2023-05-03T03:06:36.125Z,13.65
2023-05-03T03:07:58.783Z,9.23
2023-05-03T03:09:21.632Z,11.40
2023-05-03T03:10:44.363Z,13.48
2023-05-03T03:12:06.747Z,12.57
2023-05-03T03:13:31.629Z,11.07
2023-05-03T03:14:55.322Z,13.20
2023-05-03T03:16:16.887Z,10.20
2023-05-03T03:17:40.412Z,14.38
2023-05-03T03:19:08.921Z,8.07
2023-05-03T03:20:31.886Z,17.95
2023-05-03T03:21:53.403Z,14.30
2023-05-03T03:23:16.069Z,18.60
2023-05-03T03:24:39.027Z,11.48
2023-05-03T03:26:02.264Z,14.65
2023-05-03T03:27:28.190Z,15.73
2023-05-03T03:28:53.979Z,11.57
2023-05-03T03:30:21.283Z,14.60
2023-05-03T03:31:53.942Z,14.73
2023-05-03T03:33:15.803Z,12.35
2023-05-03T03:36:00.785Z,9.95
2023-05-03T03:37:28.143Z,13.50
2023-05-03T03:38:50.927Z,11.40
2023-05-03T03:40:13.600Z,13.70
2023-05-03T03:41:37.560Z,9.23
2023-05-03T03:43:01.489Z,14.82
2023-05-03T03:44:26.191Z,11.55
2023-05-03T03:45:49.596Z,10.55
2023-05-03T03:47:13.443Z,10.63
2023-05-03T03:48:34.854Z,14.48
2023-05-03T03:49:57.346Z,12.55
2023-05-03T03:51:20.135Z,13.55
2023-05-03T03:52:42.786Z,10.60
2023-05-03T03:55:31.569Z,13.48
2023-05-03T03:57:10.994Z,12.13
2023-05-03T03:58:36.165Z,18.38
2023-05-03T04:00:02.716Z,8.80
2023-05-03T04:01:37.318Z,11.52
2023-05-03T04:03:00.636Z,15.25
2023-05-03T04:04:26.892Z,9.73
2023-05-03T04:05:51.513Z,13.10
2023-05-03T04:07:18.861Z,8.90
2023-05-03T04:08:43.801Z,13.93
2023-05-03T04:10:41.296Z,11.20
2023-05-03T04:12:04.594Z,13.18
2023-05-03T04:13:31.138Z,10.90
2023-05-03T04:14:54.347Z,10.40
2023-05-03T04:16:19.276Z,11.23
2023-05-03T04:17:40.985Z,12.10
2023-05-03T04:19:08.624Z,23.50
2023-05-03T04:20:35.382Z,13.45
2023-05-03T04:21:59.137Z,11.30
2023-05-03T04:23:24.908Z,13.20
2023-05-03T04:24:48.216Z,12.88
2023-05-03T04:26:20.334Z,8.60
2023-05-03T04:27:51.746Z,11.45
2023-05-03T04:29:14.751Z,10.15
2023-05-03T04:30:39.591Z,12.45
2023-05-03T04:32:04.380Z,11.05
2023-05-03T04:33:27.528Z,12.27
2023-05-03T04:34:53.954Z,11.43
2023-05-03T04:36:19.069Z,15.40
2023-05-03T04:37:43.623Z,15.88
2023-05-03T04:39:11.704Z,14.45
2023-05-03T04:40:35.091Z,10.45
2023-05-03T04:42:09.339Z,12.23
2023-05-03T04:43:33.184Z,12.80
2023-05-03T04:44:56.150Z,15.35
2023-05-03T04:46:18.771Z,13.65
2023-05-03T04:47:43.354Z,10.95
2023-05-03T04:49:05.879Z,10.70
2023-05-03T04:50:31.406Z,12.45
2023-05-03T04:51:55.196Z,13.85
2023-05-03T04:53:20.100Z,13.65
2023-05-03T04:54:54.625Z,13.25
2023-05-03T04:56:17.681Z,13.90
2023-05-03T04:57:39.797Z,15.63
2023-05-03T04:59:04.620Z,14.30
2023-05-03T05:00:28.023Z,17.15
2023-05-03T05:01:58.744Z,9.45
2023-05-03T05:03:22.495Z,17.95
2023-05-03T05:04:45.889Z,9.23
2023-05-03T05:06:13.636Z,11.60
2023-05-03T05:07:46.837Z,10.30
2023-05-03T05:09:09.524Z,9.37
2023-05-03T05:14:34.816Z,11.07
2023-05-03T05:16:00.719Z,17.67
2023-05-03T05:17:23.408Z,15.60
2023-05-03T05:18:48.563Z,12.07
2023-05-03T05:20:13.706Z,15.20
2023-05-03T05:21:45.272Z,16.23
2023-05-03T05:23:08.045Z,11.95
2023-05-03T05:24:54.344Z,10.15
2023-05-03T05:26:18.675Z,14.27
2023-05-03T05:27:41.778Z,19.48
2023-05-03T05:29:07.069Z,9.40
2023-05-03T05:30:30.166Z,13.73
2023-05-03T05:32:08.213Z,14.32
2023-05-03T05:33:31.768Z,10.23
2023-05-03T05:34:56.945Z,12.40
2023-05-03T05:36:29.322Z,20.25
2023-05-03T05:37:51.571Z,14.85
2023-05-03T05:39:29.528Z,10.88
2023-05-03T05:40:52.226Z,10.35
2023-05-03T05:42:17.907Z,9.75
2023-05-03T05:43:41.061Z,9.77
2023-05-03T05:45:03.990Z,16.38
2023-05-03T05:47:18.545Z,8.10
2023-05-03T05:48:43.710Z,10.82
2023-05-03T05:50:18.522Z,10.90
2023-05-03T05:51:48.363Z,12.60
2023-05-03T05:53:11.118Z,11.20
2023-05-03T05:54:37.934Z,10.30
2023-05-03T05:56:05.478Z,9.48
2023-05-03T05:57:29.206Z,15.38
2023-05-03T05:58:51.829Z,11.38
2023-05-03T06:00:27.656Z,12.23
2023-05-03T06:02:41.529Z,11.30
2023-05-03T06:04:09.375Z,13.18
2023-05-03T06:05:34.294Z,13.68
2023-05-03T06:06:57.088Z,11.65
2023-05-03T06:08:27.994Z,10.57
2023-05-03T06:09:52.797Z,14.73
2023-05-03T06:11:20.215Z,11.20
2023-05-03T06:12:43.142Z,7.43
2023-05-03T06:14:11.147Z,11.30
2023-05-03T06:15:39.022Z,11.18
2023-05-03T06:17:09.160Z,10.85
2023-05-03T06:18:39.958Z,13.45
2023-05-03T06:20:05.052Z,15.27
2023-05-03T06:21:30.467Z,11.48
2023-05-03T06:22:52.732Z,14.32
2023-05-03T06:24:21.348Z,9.25
2023-05-03T06:25:55.486Z,11.70
2023-05-03T06:27:18.855Z,10.38
2023-05-03T06:28:43.308Z,12.65
2023-05-03T06:30:08.866Z,9.82
2023-05-03T06:31:34.418Z,10.85
2023-05-03T06:32:59.470Z,14.75
2023-05-03T06:34:23.908Z,10.40
2023-05-03T06:35:59.405Z,8.00
2023-05-03T06:37:26.379Z,11.82
2023-05-03T06:38:50.472Z,14.43
2023-05-03T06:40:13.681Z,12.63
2023-05-03T06:41:39.092Z,10.25
2023-05-03T06:43:01.997Z,13.30
2023-05-03T06:44:36.161Z,10.75
2023-05-03T06:45:58.749Z,13.35
2023-05-03T06:47:24.302Z,12.95
2023-05-03T06:51:07.709Z,10.30
2023-05-03T06:52:33.216Z,18.45
2023-05-03T06:53:56.437Z,9.77
2023-05-03T06:55:19.134Z,14.48
2023-05-03T06:57:10.861Z,8.93
2023-05-03T06:58:51.805Z,14.65
2023-05-03T07:00:16.294Z,13.18
2023-05-03T07:01:40.440Z,14.90
2023-05-03T07:03:05.259Z,9.90
2023-05-03T07:04:39.800Z,11.52
2023-05-03T07:06:02.533Z,11.10
2023-05-03T07:07:26.130Z,8.88
2023-05-03T07:08:52.698Z,12.52
2023-05-03T07:10:31.596Z,10.23
2023-05-03T07:11:54.567Z,13.65
2023-05-03T07:13:24.772Z,12.30
2023-05-03T07:14:47.738Z,12.60
2023-05-03T07:16:11.942Z,11.38
2023-05-03T07:17:35.292Z,10.77
2023-05-03T07:19:00.400Z,11.15
2023-05-03T07:20:53.947Z,9.63
2023-05-03T07:22:20.994Z,10.93
2023-05-03T07:23:53.861Z,10.07
2023-05-03T07:25:20.365Z,9.85
2023-05-03T07:26:50.689Z,12.70
2023-05-03T07:28:13.088Z,12.07
2023-05-03T07:29:35.469Z,8.63
2023-05-03T07:30:58.743Z,9.20
2023-05-03T07:32:29.023Z,9.85
2023-05-03T07:33:51.879Z,12.15
2023-05-03T07:35:15.029Z,10.95
2023-05-03T07:36:37.407Z,8.70
2023-05-03T07:38:03.089Z,10.10
2023-05-03T07:39:38.125Z,10.23
2023-05-03T07:41:00.848Z,9.18
2023-05-03T07:42:23.748Z,9.90
2023-05-03T07:43:53.632Z,10.48
2023-05-03T07:45:16.793Z,7.53
2023-05-03T07:46:50.277Z,9.10
2023-05-03T07:48:17.764Z,10.82
2023-05-03T07:49:45.704Z,10.43
2023-05-03T07:51:08.328Z,9.57
2023-05-03T07:52:40.041Z,9.77
2023-05-03T07:54:22.150Z,8.80
2023-05-03T07:55:48.111Z,7.53
2023-05-03T07:57:12.221Z,6.47
2023-05-03T07:58:43.658Z,4.53
2023-05-03T08:00:19.859Z,7.70
2023-05-03T08:01:51.024Z,6.85
2023-05-03T08:03:16.159Z,7.57
2023-05-03T08:04:39.663Z,8.45
2023-05-03T08:06:04.779Z,6.28
2023-05-03T08:07:33.318Z,6.88
2023-05-03T08:09:00.833Z,9.15
2023-05-03T08:10:26.593Z,10.23
2023-05-03T08:12:12.885Z,7.97
2023-05-03T08:15:26.109Z,7.03
2023-05-03T08:16:48.245Z,7.38
2023-05-03T08:18:22.305Z,7.82
2023-05-03T08:19:50.097Z,6.28
2023-05-03T08:21:13.770Z,6.78
2023-05-03T08:22:45.572Z,7.43
2023-05-03T08:24:10.479Z,7.88
2023-05-03T08:25:37.582Z,6.70
2023-05-03T08:27:01.692Z,7.40
2023-05-03T08:28:26.350Z,7.47
2023-05-03T08:30:25.495Z,6.35
2023-05-03T08:31:49.364Z,6.38
2023-05-03T08:33:12.253Z,6.30
2023-05-03T08:34:38.183Z,5.38
2023-05-03T08:36:00.644Z,8.23
2023-05-03T08:38:20.238Z,8.05
2023-05-03T08:39:42.861Z,6.18
2023-05-03T08:41:14.951Z,5.15
2023-05-03T08:43:01.053Z,7.75
2023-05-03T08:44:25.746Z,7.47
2023-05-03T08:45:49.998Z,4.70
2023-05-03T08:48:07.607Z,10.18
2023-05-03T08:50:08.302Z,5.20
2023-05-03T08:51:32.122Z,6.07
2023-05-03T08:53:16.158Z,7.95
2023-05-03T08:54:49.223Z,4.93
2023-05-03T08:56:20.519Z,5.03
2023-05-03T08:57:45.150Z,4.85
2023-05-03T08:59:14.885Z,6.03
2023-05-03T09:02:26.141Z,6.97
2023-05-03T09:04:05.204Z,9.63
2023-05-03T09:07:45.172Z,8.18
2023-05-03T09:09:47.317Z,7.10
2023-05-03T09:13:04.069Z,7.38
2023-05-03T09:14:27.311Z,5.90
2023-05-03T09:16:04.918Z,5.78
2023-05-03T09:18:56.127Z,7.38
2023-05-03T09:20:18.645Z,7.28
2023-05-03T09:21:53.566Z,9.80
2023-05-03T09:25:48.577Z,7.95
2023-05-03T09:27:22.761Z,7.65
2023-05-03T09:28:56.819Z,7.53
2023-05-03T09:33:32.764Z,7.55
2023-05-03T09:35:19.207Z,4.85
2023-05-03T09:44:10.925Z,4.55
2023-05-03T09:46:30.477Z,5.03
2023-05-03T10:03:36.861Z,3.90
2023-05-03T10:05:28.292Z,5.97
2023-05-03T10:07:19.713Z,5.88
2023-05-03T10:08:53.058Z,5.17
2023-05-03T10:11:07.546Z,5.13
2023-05-03T10:16:57.966Z,6.47
2023-05-03T10:19:48.695Z,4.85
2023-05-03T10:24:15.377Z,6.60
2023-05-03T10:26:37.169Z,6.68
2023-05-03T10:28:15.959Z,5.50
2023-05-03T10:30:09.554Z,6.60
2023-05-03T10:31:51.130Z,6.30
2023-05-03T10:33:40.213Z,5.47
2023-05-03T10:35:06.424Z,5.60
2023-05-03T10:36:59.098Z,7.03
2023-05-03T10:38:53.081Z,6.47
2023-05-03T10:41:07.412Z,5.43
2023-05-03T10:43:03.384Z,5.95
2023-05-03T10:44:59.491Z,6.78
2023-05-03T10:46:52.882Z,8.38
2023-05-03T10:48:23.853Z,7.45
2023-05-03T10:49:48.317Z,6.20
2023-05-03T10:51:41.484Z,4.80
2023-05-03T10:53:14.633Z,6.45
2023-05-03T10:55:01.018Z,7.53
2023-05-03T10:56:28.451Z,7.47
2023-05-03T10:57:59.114Z,7.97
2023-05-03T10:59:47.923Z,4.43
2023-05-03T11:01:33.727Z,9.43
2023-05-03T11:03:56.226Z,8.75
2023-05-03T11:05:24.028Z,8.00
2023-05-03T11:07:11.348Z,9.75
2023-05-03T11:09:47.048Z,7.20
2023-05-03T11:12:07.561Z,5.30
2023-05-03T11:13:39.993Z,10.27
2023-05-03T11:16:09.814Z,8.93
2023-05-03T11:17:45.995Z,6.35
2023-05-03T11:20:11.913Z,6.57
2023-05-03T11:21:37.846Z,8.48
2023-05-03T11:23:02.879Z,8.80
2023-05-03T11:24:27.566Z,10.32
2023-05-03T11:25:50.759Z,8.70
2023-05-03T11:27:16.908Z,8.07
2023-05-03T11:28:58.279Z,5.45
2023-05-03T11:30:28.117Z,6.97
2023-05-03T11:31:53.096Z,9.23
2023-05-03T11:33:16.044Z,6.75
2023-05-03T11:34:42.914Z,14.80
2023-05-03T11:38:30.360Z,10.68
2023-05-03T11:39:53.151Z,14.68
2023-05-03T11:41:16.934Z,10.38
2023-05-03T11:42:52.547Z,10.55
2023-05-03T11:44:17.724Z,6.97
2023-05-03T11:45:44.440Z,7.32
2023-05-03T11:47:09.641Z,7.90
2023-05-03T11:48:35.257Z,8.60
2023-05-03T11:50:02.416Z,8.85
2023-05-03T11:51:54.410Z,7.95
2023-05-03T11:53:20.896Z,6.03
2023-05-03T11:54:49.442Z,7.47
2023-05-03T11:57:05.577Z,6.28
2023-05-03T11:58:28.104Z,6.60
2023-05-03T11:59:50.539Z,6.50
2023-05-03T12:01:13.242Z,10.13
2023-05-03T12:03:40.943Z,6.85
2023-05-03T12:05:14.371Z,9.98
2023-05-03T12:06:38.886Z,7.35
2023-05-03T12:08:05.591Z,11.13
2023-05-03T12:09:39.899Z,7.13
2023-05-03T12:11:11.103Z,9.52
2023-05-03T12:12:50.081Z,8.13
2023-05-03T12:14:25.076Z,7.20
2023-05-03T12:18:01.120Z,6.05
2023-05-03T12:22:41.983Z,9.48
2023-05-03T12:24:10.821Z,10.07
2023-05-03T12:26:15.112Z,8.10
2023-05-03T12:27:49.976Z,4.22
2023-05-03T12:29:35.129Z,10.52
2023-05-03T12:31:23.841Z,8.88
2023-05-03T12:32:46.934Z,9.65
2023-05-03T12:34:31.746Z,10.88
2023-05-03T12:35:54.141Z,11.88
2023-05-03T12:37:27.070Z,8.73
2023-05-03T12:38:56.200Z,7.75
2023-05-03T12:40:34.271Z,8.18
2023-05-03T12:43:26.665Z,9.20
2023-05-03T12:45:03.158Z,6.85
2023-05-03T12:46:34.453Z,10.85
2023-05-03T12:48:05.622Z,6.70
2023-05-03T12:49:30.904Z,8.43
2023-05-03T12:51:13.362Z,11.35
2023-05-03T12:52:52.418Z,8.82
2023-05-03T12:54:19.062Z,8.18
2023-05-03T12:55:43.110Z,6.53
2023-05-03T12:57:15.600Z,8.30
2023-05-03T13:04:00.931Z,7.93
2023-05-03T13:05:35.836Z,8.13
2023-05-03T13:07:01.069Z,7.03
2023-05-03T13:08:33.548Z,11.70
2023-05-03T13:11:22.402Z,8.50
2023-05-03T13:12:47.543Z,7.22
2023-05-03T13:14:14.670Z,8.10
2023-05-03T13:15:38.139Z,9.30
2023-05-03T13:17:03.357Z,9.63
2023-05-03T13:22:01.139Z,6.22
2023-05-03T13:23:25.885Z,7.18
2023-05-03T13:24:58.485Z,6.20
2023-05-03T13:26:21.942Z,7.82
2023-05-03T13:28:13.238Z,9.13
2023-05-03T13:29:47.570Z,5.03
2023-05-03T13:31:15.281Z,7.75
2023-05-03T13:32:37.675Z,6.90
2023-05-03T13:34:12.177Z,5.85
2023-05-03T13:35:52.375Z,4.47
2023-05-03T13:37:44.851Z,5.78
2023-05-03T13:39:27.808Z,4.47
2023-05-03T13:42:01.058Z,7.63
2023-05-03T13:43:48.448Z,7.28
2023-05-03T13:45:37.264Z,6.32
2023-05-03T13:46:59.722Z,9.13
2023-05-03T13:48:38.111Z,7.82
2023-05-03T13:50:01.592Z,24.63
2023-05-03T13:55:53.622Z,6.30
2023-05-03T13:57:24.934Z,7.35
2023-05-03T14:00:01.510Z,8.85
2023-05-03T14:01:28.711Z,7.95
2023-05-03T14:02:58.038Z,12.20
2023-05-03T14:05:53.983Z,7.65
2023-05-03T14:07:28.360Z,5.82
2023-05-03T14:09:20.618Z,10.27
2023-05-03T14:11:07.027Z,6.50
2023-05-03T14:12:40.213Z,6.38
2023-05-03T14:15:14.626Z,6.68
2023-05-03T14:16:48.618Z,7.43
2023-05-03T14:18:34.623Z,9.13
2023-05-03T14:21:12.414Z,7.88
2023-05-03T14:22:38.802Z,7.40
2023-05-03T14:24:09.226Z,6.90
2023-05-03T14:25:47.346Z,7.93
2023-05-03T14:27:17.565Z,9.07
2023-05-03T14:28:51.913Z,5.50
2023-05-03T14:30:16.398Z,9.00
2023-05-03T14:31:42.680Z,7.90
2023-05-03T14:33:07.895Z,9.35
2023-05-03T14:34:38.702Z,11.57
2023-05-03T14:36:05.669Z,7.25
2023-05-03T14:37:38.012Z,5.75
2023-05-03T14:39:02.353Z,5.07
2023-05-03T14:40:25.415Z,6.68
2023-05-03T14:41:51.432Z,6.32
2023-05-03T14:43:19.975Z,6.80
2023-05-03T14:44:46.120Z,7.65
2023-05-03T14:46:14.089Z,9.65
2023-05-03T14:47:59.024Z,15.90
2023-05-03T14:49:59.261Z,10.40
2023-05-03T14:51:23.861Z,5.90
2023-05-03T14:52:52.423Z,10.30
2023-05-03T14:54:16.261Z,8.05
2023-05-03T14:55:39.283Z,6.50
2023-05-03T14:57:05.178Z,8.07
2023-05-03T14:58:28.020Z,7.70
2023-05-03T14:59:51.148Z,13.18
2023-05-03T15:01:22.228Z,7.00
2023-05-03T15:02:47.021Z,6.70
2023-05-03T15:04:12.042Z,7.07
2023-05-03T15:05:46.193Z,9.75
2023-05-03T15:07:14.363Z,7.13
2023-05-03T15:08:40.604Z,12.15
2023-05-03T15:10:10.776Z,9.10
2023-05-03T15:11:33.697Z,12.70
2023-05-03T15:12:56.343Z,7.72
2023-05-03T15:14:20.698Z,9.23
2023-05-03T15:15:44.507Z,8.98
2023-05-03T15:17:06.799Z,7.22
2023-05-03T15:18:29.327Z,10.35
2023-05-03T15:19:54.184Z,5.45
2023-05-03T15:21:27.656Z,6.30
2023-05-03T15:23:04.672Z,7.13
2023-05-03T15:24:41.756Z,6.13
2023-05-03T15:26:15.280Z,6.20
2023-05-03T15:27:43.626Z,9.63
2023-05-03T15:29:08.429Z,6.53
2023-05-03T15:30:31.512Z,5.68
2023-05-03T15:31:59.753Z,7.03
2023-05-03T15:35:29.858Z,8.60
2023-05-03T15:36:56.736Z,5.38
2023-05-03T15:38:19.641Z,10.90
2023-05-03T15:39:41.988Z,7.80
2023-05-03T15:41:13.025Z,6.15
2023-05-03T15:43:00.976Z,9.68
2023-05-03T15:44:23.616Z,5.53
2023-05-03T15:45:47.434Z,8.15
2023-05-03T15:47:16.912Z,9.07
2023-05-03T15:48:39.690Z,7.90
2023-05-03T15:50:02.551Z,7.55
2023-05-03T15:51:37.951Z,7.15
2023-05-03T15:53:04.245Z,8.68
2023-05-03T15:54:28.598Z,7.38
2023-05-03T15:56:04.050Z,7.07
2023-05-03T15:57:37.626Z,6.47
2023-05-03T15:59:00.127Z,8.13
2023-05-03T16:00:35.955Z,7.47
2023-05-03T16:02:23.965Z,6.65
2023-05-03T16:03:48.106Z,6.45
2023-05-03T16:05:13.231Z,9.10
2023-05-03T16:06:36.317Z,9.38
2023-05-03T16:07:59.418Z,13.27
2023-05-03T16:09:26.164Z,7.55
2023-05-03T16:10:48.809Z,8.00
2023-05-03T16:12:11.414Z,9.65
2023-05-03T16:13:36.391Z,11.95
2023-05-03T16:15:01.175Z,8.05
2023-05-03T16:16:24.017Z,10.00
2023-05-03T16:17:49.879Z,12.98
2023-05-03T16:19:12.737Z,12.98
2023-05-03T16:20:35.296Z,16.88
2023-05-03T16:22:01.420Z,14.60
2023-05-03T16:23:43.231Z,9.32
2023-05-03T16:25:13.738Z,15.15
2023-05-03T16:29:25.694Z,7.95
2023-05-03T16:31:14.316Z,8.98
2023-05-03T16:32:38.971Z,11.00
2023-05-03T16:34:21.689Z,9.88
2023-05-03T16:36:45.776Z,12.18
2023-05-03T16:39:57.374Z,10.18
2023-05-03T16:41:26.163Z,10.77
2023-05-03T16:42:55.276Z,10.77
2023-05-03T16:44:28.801Z,5.90
2023-05-03T16:46:05.171Z,10.15
2023-05-03T16:47:30.366Z,6.75
2023-05-03T16:48:55.693Z,9.50
2023-05-03T16:50:40.351Z,13.48
2023-05-03T16:52:13.916Z,9.38
2023-05-03T16:53:37.333Z,11.00
2023-05-03T16:55:01.060Z,5.05
2023-05-03T16:56:31.761Z,8.18
2023-05-03T16:58:05.570Z,11.80
2023-05-03T16:59:34.063Z,9.35
2023-05-03T17:01:39.528Z,8.43
2023-05-03T17:03:09.765Z,8.07
2023-05-03T17:07:12.954Z,13.63
2023-05-03T17:08:36.259Z,7.35
2023-05-03T17:10:10.864Z,10.07
2023-05-03T17:11:40.576Z,7.38
2023-05-03T17:13:04.156Z,9.05
2023-05-03T17:14:28.268Z,5.75
2023-05-03T17:15:59.401Z,5.57
2023-05-03T17:17:32.013Z,8.10
2023-05-03T17:18:57.953Z,12.30
2023-05-03T17:20:28.305Z,7.55
2023-05-03T17:21:55.746Z,10.20
2023-05-03T17:23:24.270Z,8.23
2023-05-03T17:27:51.551Z,9.40
2023-05-03T17:29:20.293Z,9.23
2023-05-03T17:31:18.270Z,7.90
2023-05-03T17:32:43.635Z,7.43
2023-05-03T17:34:17.791Z,9.15
2023-05-03T17:35:43.116Z,8.13
2023-05-03T17:37:16.751Z,10.43
2023-05-03T17:39:41.460Z,8.48
2023-05-03T17:41:10.863Z,8.45
2023-05-03T17:42:37.935Z,9.07
2023-05-03T17:44:13.480Z,7.30
2023-05-03T17:45:47.568Z,7.40
2023-05-03T17:47:31.870Z,9.27
2023-05-03T17:49:00.130Z,7.50
2023-05-03T17:50:29.506Z,7.95
2023-05-03T17:51:59.191Z,6.50
2023-05-03T17:53:23.354Z,9.15
2023-05-03T17:54:48.830Z,5.30
2023-05-03T17:56:20.323Z,8.70
2023-05-03T17:57:48.493Z,10.88
2023-05-03T17:59:47.768Z,7.20
2023-05-03T18:01:37.907Z,7.82
2023-05-03T18:03:00.622Z,8.05
2023-05-03T18:04:23.404Z,12.77
2023-05-03T18:05:46.191Z,7.95
2023-05-03T18:07:10.696Z,10.93
2023-05-03T18:08:35.461Z,9.63
2023-05-03T18:09:59.871Z,5.93
2023-05-03T18:11:28.286Z,9.85
2023-05-03T18:13:07.785Z,6.60
2023-05-03T18:14:41.189Z,5.13
2023-05-03T18:16:11.963Z,10.57
2023-05-03T18:17:33.356Z,10.55
2023-05-03T18:19:12.198Z,11.32
2023-05-03T18:20:49.141Z,7.20
2023-05-03T18:22:19.922Z,11.63
2023-05-03T18:23:52.406Z,9.43
2023-05-03T18:25:20.274Z,6.20
2023-05-03T18:26:49.943Z,12.32
2023-05-03T18:28:17.542Z,10.52
2023-05-03T18:33:04.017Z,11.30
2023-05-03T18:34:32.267Z,5.97
2023-05-03T18:36:28.415Z,7.38
2023-05-03T18:38:09.017Z,11.85
2023-05-03T18:39:35.448Z,10.07
2023-05-03T18:42:04.942Z,11.93
2023-05-03T18:44:09.676Z,7.38
2023-05-03T18:45:42.227Z,9.15
2023-05-03T18:47:38.812Z,10.43
2023-05-03T18:49:55.949Z,13.15
2023-05-03T18:54:11.248Z,6.43
2023-05-03T18:57:37.680Z,10.27
2023-05-03T18:59:14.009Z,12.85
2023-05-03T19:00:42.231Z,8.30
2023-05-03T19:02:14.815Z,10.07
2023-05-03T19:04:03.001Z,16.35
2023-05-03T19:05:49.797Z,10.85
2023-05-03T19:09:21.472Z,8.40
2023-05-03T19:10:53.045Z,8.45
2023-05-03T19:12:44.330Z,9.82
2023-05-03T19:14:48.856Z,12.38
2023-05-03T19:16:11.979Z,16.15
2023-05-03T19:17:35.052Z,16.27
2023-05-03T19:18:59.149Z,11.63
2023-05-03T19:20:45.088Z,11.70
2023-05-03T19:22:15.766Z,11.23
2023-05-03T19:23:47.490Z,11.43
2023-05-03T19:25:53.506Z,9.40
2023-05-03T19:28:08.270Z,11.23
2023-05-03T19:30:20.180Z,15.88
2023-05-03T19:32:06.881Z,12.82
2023-05-03T19:33:49.873Z,26.30
2023-05-03T19:35:58.562Z,26.40
2023-05-03T19:37:33.289Z,17.45
2023-05-03T19:38:59.237Z,20.10
2023-05-03T19:40:31.665Z,19.23
2023-05-03T19:42:15.529Z,18.38
2023-05-03T19:44:00.154Z,13.50
2023-05-03T19:45:36.811Z,12.52
2023-05-03T19:47:02.203Z,11.00
2023-05-03T19:48:30.600Z,12.82
2023-05-03T19:49:59.072Z,12.13
2023-05-03T19:51:24.330Z,12.10
2023-05-03T19:53:28.687Z,13.77
2023-05-03T19:56:03.831Z,13.55
2023-05-03T19:57:36.812Z,14.70
2023-05-03T19:59:15.698Z,16.60
2023-05-03T20:00:46.469Z,15.80
2023-05-03T20:02:24.860Z,13.27
2023-05-03T20:04:01.754Z,15.20
2023-05-03T20:05:43.341Z,16.23
2023-05-03T20:07:12.794Z,17.45
2023-05-03T20:08:54.467Z,17.27
2023-05-03T20:10:22.031Z,15.75
2023-05-03T20:11:47.240Z,13.98
2023-05-03T20:13:16.968Z,9.52
2023-05-03T20:14:50.711Z,14.88
2023-05-03T20:16:19.331Z,12.65
2023-05-03T20:17:53.248Z,14.35
2023-05-03T20:19:33.108Z,11.18
2023-05-03T20:22:23.762Z,9.95
2023-05-03T20:23:58.853Z,13.35
2023-05-03T20:25:23.314Z,11.32
2023-05-03T20:26:45.834Z,10.98
2023-05-03T20:28:11.576Z,10.75
2023-05-03T20:30:19.489Z,14.88
2023-05-03T20:31:48.330Z,11.00
2023-05-03T20:33:14.361Z,17.45
2023-05-03T20:34:37.109Z,13.98
2023-05-03T20:36:00.497Z,13.63
2023-05-03T20:40:03.136Z,9.88
2023-05-03T20:41:27.488Z,13.07
2023-05-03T20:43:05.799Z,16.67
2023-05-03T20:44:41.492Z,19.90
2023-05-03T20:46:07.697Z,17.80
2023-05-03T20:47:32.833Z,14.88
2023-05-03T20:48:57.716Z,18.75
2023-05-03T20:54:16.116Z,14.77
2023-05-03T20:55:58.969Z,13.50
2023-05-03T20:57:38.472Z,18.75
2023-05-03T20:59:13.534Z,23.73
2023-05-03T21:00:39.035Z,16.92
2023-05-03T21:04:38.531Z,15.50
2023-05-03T21:08:05.298Z,14.40
2023-05-03T21:09:31.476Z,14.48
2023-05-03T21:11:25.295Z,17.02
2023-05-03T21:15:12.303Z,18.33
2023-05-03T21:16:47.002Z,20.38
2023-05-03T21:18:23.184Z,11.80
2023-05-03T21:19:56.128Z,15.25
2023-05-03T21:21:43.093Z,19.42
2023-05-03T21:23:09.479Z,18.55
2023-05-03T21:24:54.753Z,18.33
2023-05-03T21:26:33.893Z,14.27
2023-05-03T21:28:06.047Z,21.27
2023-05-03T21:29:36.044Z,16.02
2023-05-03T21:31:11.833Z,26.58
2023-05-03T21:34:30.305Z,16.17
2023-05-03T21:36:01.928Z,20.48
2023-05-03T21:37:34.423Z,18.40
2023-05-03T21:39:02.586Z,16.45
2023-05-03T21:42:07.542Z,18.98
2023-05-03T21:43:29.679Z,18.33
2023-05-03T21:45:14.937Z,19.83
2023-05-03T21:46:49.193Z,16.88
2023-05-03T21:48:27.101Z,22.83
2023-05-03T21:49:51.641Z,24.98
2023-05-03T21:51:52.382Z,20.25
2023-05-03T21:53:35.115Z,21.58
2023-05-03T21:57:04.592Z,24.35
2023-05-03T22:00:52.947Z,21.77
2023-05-03T22:04:50.327Z,22.75
2023-05-03T22:06:18.582Z,21.17
2023-05-03T22:07:44.302Z,21.13
2023-05-03T22:09:09.805Z,23.58
2023-05-03T22:10:57.824Z,25.05